sensor_id;sensor_type;location;lat;lon;timestamp;temperature;humidity
13585;DHT22;6863;48.402;9.994;2023-11-21T00:00:20;7.60;99.90
13585;DHT22;6863;48.402;9.994;2023-11-21T00:02:46;7.60;99.90
13585;DHT22;6863;48.402;9.994;2023-11-21T00:05:13;7.60;99.90
13585;DHT22;6863;48.402;9.994;2023-11-21T00:07:42;7.70;99.90
13585;DHT22;6863;48.402;9.994;2023-11-21T00:10:08;7.70;99.90
13585;DHT22;6863;48.402;9.994;2023-11-21T00:12:35;7.70;99.90
13585;DHT22;6863;48.402;9.994;2023-11-21T00:15:01;7.70;99.90
13585;DHT22;6863;48.402;9.994;2023-11-21T00:17:27;7.70;99.90
13585;DHT22;6863;48.402;9.994;2023-11-21T00:19:53;7.70;99.90
13585;DHT22;6863;48.402;9.994;2023-11-21T00:22:19;7.70;99.90
13585;DHT22;6863;48.402;9.994;2023-11-21T00:24:45;7.70;99.90
13585;DHT22;6863;48.402;9.994;2023-11-21T00:27:11;7.60;99.90
13585;DHT22;6863;48.402;9.994;2023-11-21T00:29:36;7.70;99.90
13585;DHT22;6863;48.402;9.994;2023-11-21T00:32:04;7.70;99.90
13585;DHT22;6863;48.402;9.994;2023-11-21T00:34:31;7.70;99.90
13585;DHT22;6863;48.402;9.994;2023-11-21T00:36:56;7.70;99.90
13585;DHT22;6863;48.402;9.994;2023-11-21T00:39:22;7.70;99.90
13585;DHT22;6863;48.402;9.994;2023-11-21T00:41:47;7.70;99.90
13585;DHT22;6863;48.402;9.994;2023-11-21T00:44:13;7.70;99.90
13585;DHT22;6863;48.402;9.994;2023-11-21T00:46:39;7.60;99.90
13585;DHT22;6863;48.402;9.994;2023-11-21T00:49:04;7.70;99.90
13585;DHT22;6863;48.402;9.994;2023-11-21T00:51:30;7.60;99.90
13585;DHT22;6863;48.402;9.994;2023-11-21T00:53:56;7.60;99.90
13585;DHT22;6863;48.402;9.994;2023-11-21T00:56:22;7.60;99.90
13585;DHT22;6863;48.402;9.994;2023-11-21T00:58:47;7.70;99.90
13585;DHT22;6863;48.402;9.994;2023-11-21T01:01:16;7.70;99.90
13585;DHT22;6863;48.402;9.994;2023-11-21T01:03:41;7.60;99.90
13585;DHT22;6863;48.402;9.994;2023-11-21T01:06:07;7.60;99.90
13585;DHT22;6863;48.402;9.994;2023-11-21T01:08:34;7.60;99.90
13585;DHT22;6863;48.402;9.994;2023-11-21T01:11:01;7.50;99.90
13585;DHT22;6863;48.402;9.994;2023-11-21T01:13:27;7.60;99.90
13585;DHT22;6863;48.402;9.994;2023-11-21T01:15:55;7.60;99.90
13585;DHT22;6863;48.402;9.994;2023-11-21T01:18:21;7.50;99.90
13585;DHT22;6863;48.402;9.994;2023-11-21T01:20:47;7.50;99.90
13585;DHT22;6863;48.402;9.994;2023-11-21T01:23:13;7.50;99.90
13585;DHT22;6863;48.402;9.994;2023-11-21T01:25:39;7.50;99.90
13585;DHT22;6863;48.402;9.994;2023-11-21T01:28:04;7.50;99.90
13585;DHT22;6863;48.402;9.994;2023-11-21T01:30:30;7.50;99.90
13585;DHT22;6863;48.402;9.994;2023-11-21T01:32:58;7.50;99.90
13585;DHT22;6863;48.402;9.994;2023-11-21T01:35:23;7.50;99.90
13585;DHT22;6863;48.402;9.994;2023-11-21T01:37:49;7.50;99.90
13585;DHT22;6863;48.402;9.994;2023-11-21T01:40:14;7.50;99.90
13585;DHT22;6863;48.402;9.994;2023-11-21T01:42:41;7.50;99.90
13585;DHT22;6863;48.402;9.994;2023-11-21T01:45:07;7.50;99.90
13585;DHT22;6863;48.402;9.994;2023-11-21T01:47:33;7.50;99.90
13585;DHT22;6863;48.402;9.994;2023-11-21T01:49:59;7.50;99.90
13585;DHT22;6863;48.402;9.994;2023-11-21T01:52:26;7.40;99.90
13585;DHT22;6863;48.402;9.994;2023-11-21T01:54:52;7.40;99.90
13585;DHT22;6863;48.402;9.994;2023-11-21T01:57:19;7.30;99.90
13585;DHT22;6863;48.402;9.994;2023-11-21T01:59:47;7.30;99.90
13585;DHT22;6863;48.402;9.994;2023-11-21T02:02:14;7.30;99.90
13585;DHT22;6863;48.402;9.994;2023-11-21T02:04:39;7.30;99.90
13585;DHT22;6863;48.402;9.994;2023-11-21T02:07:05;7.30;99.90
13585;DHT22;6863;48.402;9.994;2023-11-21T02:09:31;7.30;99.90
13585;DHT22;6863;48.402;9.994;2023-11-21T02:11:57;7.30;99.90
13585;DHT22;6863;48.402;9.994;2023-11-21T02:14:27;7.40;99.90
13585;DHT22;6863;48.402;9.994;2023-11-21T02:16:54;7.30;99.90
13585;DHT22;6863;48.402;9.994;2023-11-21T02:19:21;7.40;99.90
13585;DHT22;6863;48.402;9.994;2023-11-21T02:21:57;7.40;99.90
13585;DHT22;6863;48.402;9.994;2023-11-21T02:24:32;7.40;99.90
13585;DHT22;6863;48.402;9.994;2023-11-21T02:26:57;7.40;99.90
13585;DHT22;6863;48.402;9.994;2023-11-21T02:29:23;7.50;99.90
13585;DHT22;6863;48.402;9.994;2023-11-21T02:31:54;7.50;99.90
13585;DHT22;6863;48.402;9.994;2023-11-21T02:34:20;7.40;99.90
13585;DHT22;6863;48.402;9.994;2023-11-21T02:36:46;7.40;99.90
13585;DHT22;6863;48.402;9.994;2023-11-21T02:39:15;7.30;99.90
13585;DHT22;6863;48.402;9.994;2023-11-21T02:41:42;7.20;99.90
13585;DHT22;6863;48.402;9.994;2023-11-21T02:44:07;7.20;99.90
13585;DHT22;6863;48.402;9.994;2023-11-21T02:46:34;7.00;99.90
13585;DHT22;6863;48.402;9.994;2023-11-21T02:49:06;6.90;99.90
13585;DHT22;6863;48.402;9.994;2023-11-21T02:51:32;6.80;99.90
13585;DHT22;6863;48.402;9.994;2023-11-21T02:53:58;6.80;99.90
13585;DHT22;6863;48.402;9.994;2023-11-21T02:56:25;6.80;99.90
13585;DHT22;6863;48.402;9.994;2023-11-21T02:58:52;6.70;99.90
13585;DHT22;6863;48.402;9.994;2023-11-21T03:01:17;6.70;99.90
13585;DHT22;6863;48.402;9.994;2023-11-21T03:03:43;6.60;99.90
13585;DHT22;6863;48.402;9.994;2023-11-21T03:06:09;6.50;99.90
13585;DHT22;6863;48.402;9.994;2023-11-21T03:08:34;6.50;99.90
13585;DHT22;6863;48.402;9.994;2023-11-21T03:11:01;6.50;99.90
13585;DHT22;6863;48.402;9.994;2023-11-21T03:13:28;6.50;99.90
13585;DHT22;6863;48.402;9.994;2023-11-21T03:15:53;6.40;99.90
13585;DHT22;6863;48.402;9.994;2023-11-21T03:18:19;6.40;99.90
13585;DHT22;6863;48.402;9.994;2023-11-21T03:20:47;6.50;99.90
13585;DHT22;6863;48.402;9.994;2023-11-21T03:23:13;6.60;99.90
13585;DHT22;6863;48.402;9.994;2023-11-21T03:25:38;6.60;99.90
13585;DHT22;6863;48.402;9.994;2023-11-21T03:28:04;6.70;99.90
13585;DHT22;6863;48.402;9.994;2023-11-21T03:30:30;6.80;99.90
13585;DHT22;6863;48.402;9.994;2023-11-21T03:32:56;6.80;99.90
13585;DHT22;6863;48.402;9.994;2023-11-21T03:35:22;6.90;99.90
13585;DHT22;6863;48.402;9.994;2023-11-21T03:37:47;7.00;99.90
13585;DHT22;6863;48.402;9.994;2023-11-21T03:40:13;6.90;99.90
13585;DHT22;6863;48.402;9.994;2023-11-21T03:42:39;7.00;99.90
13585;DHT22;6863;48.402;9.994;2023-11-21T03:45:05;7.10;99.90
13585;DHT22;6863;48.402;9.994;2023-11-21T03:47:31;7.10;99.90
13585;DHT22;6863;48.402;9.994;2023-11-21T03:49:57;7.20;99.90
13585;DHT22;6863;48.402;9.994;2023-11-21T03:52:24;7.20;99.90
13585;DHT22;6863;48.402;9.994;2023-11-21T03:54:50;7.30;99.90
13585;DHT22;6863;48.402;9.994;2023-11-21T03:57:16;7.20;99.90
13585;DHT22;6863;48.402;9.994;2023-11-21T03:59:42;7.30;99.90
13585;DHT22;6863;48.402;9.994;2023-11-21T04:02:08;7.30;99.90
13585;DHT22;6863;48.402;9.994;2023-11-21T04:04:35;7.30;99.90
13585;DHT22;6863;48.402;9.994;2023-11-21T04:07:01;7.30;99.90
13585;DHT22;6863;48.402;9.994;2023-11-21T04:09:27;7.30;99.90
13585;DHT22;6863;48.402;9.994;2023-11-21T04:11:53;7.30;99.90
13585;DHT22;6863;48.402;9.994;2023-11-21T04:14:19;7.30;99.90
13585;DHT22;6863;48.402;9.994;2023-11-21T04:16:45;7.40;99.90
13585;DHT22;6863;48.402;9.994;2023-11-21T04:19:10;7.40;99.90
13585;DHT22;6863;48.402;9.994;2023-11-21T04:21:37;7.30;99.90
13585;DHT22;6863;48.402;9.994;2023-11-21T04:24:03;7.30;99.90
13585;DHT22;6863;48.402;9.994;2023-11-21T04:26:29;7.20;99.90
13585;DHT22;6863;48.402;9.994;2023-11-21T04:28:55;7.20;99.90
13585;DHT22;6863;48.402;9.994;2023-11-21T04:31:20;7.30;99.90
13585;DHT22;6863;48.402;9.994;2023-11-21T04:33:46;7.30;99.90
13585;DHT22;6863;48.402;9.994;2023-11-21T04:36:11;7.30;99.90
13585;DHT22;6863;48.402;9.994;2023-11-21T04:38:37;7.30;99.90
13585;DHT22;6863;48.402;9.994;2023-11-21T04:41:02;7.40;99.90
13585;DHT22;6863;48.402;9.994;2023-11-21T04:43:28;7.30;99.90
13585;DHT22;6863;48.402;9.994;2023-11-21T04:45:55;7.30;99.90
13585;DHT22;6863;48.402;9.994;2023-11-21T04:48:20;7.20;99.90
13585;DHT22;6863;48.402;9.994;2023-11-21T04:50:46;7.30;99.90
13585;DHT22;6863;48.402;9.994;2023-11-21T04:53:11;7.20;99.90
13585;DHT22;6863;48.402;9.994;2023-11-21T04:55:40;7.20;99.90
13585;DHT22;6863;48.402;9.994;2023-11-21T04:58:06;7.20;99.90
13585;DHT22;6863;48.402;9.994;2023-11-21T05:00:31;7.10;99.90
13585;DHT22;6863;48.402;9.994;2023-11-21T05:02:57;7.20;99.90
13585;DHT22;6863;48.402;9.994;2023-11-21T05:05:22;7.20;99.90
13585;DHT22;6863;48.402;9.994;2023-11-21T05:07:49;7.20;99.90
13585;DHT22;6863;48.402;9.994;2023-11-21T05:10:15;7.20;99.90
13585;DHT22;6863;48.402;9.994;2023-11-21T05:12:41;7.20;99.90
13585;DHT22;6863;48.402;9.994;2023-11-21T05:15:08;7.30;99.90
13585;DHT22;6863;48.402;9.994;2023-11-21T05:17:38;7.30;99.90
13585;DHT22;6863;48.402;9.994;2023-11-21T05:20:16;7.30;99.90
13585;DHT22;6863;48.402;9.994;2023-11-21T05:22:47;7.30;99.90
13585;DHT22;6863;48.402;9.994;2023-11-21T05:25:14;7.30;99.90
13585;DHT22;6863;48.402;9.994;2023-11-21T05:27:39;7.30;99.90
13585;DHT22;6863;48.402;9.994;2023-11-21T05:30:05;7.40;99.90
13585;DHT22;6863;48.402;9.994;2023-11-21T05:32:32;7.50;99.90
13585;DHT22;6863;48.402;9.994;2023-11-21T05:34:58;7.60;99.90
13585;DHT22;6863;48.402;9.994;2023-11-21T05:37:24;7.60;99.90
13585;DHT22;6863;48.402;9.994;2023-11-21T05:39:52;7.50;99.90
13585;DHT22;6863;48.402;9.994;2023-11-21T05:42:18;7.40;99.90
13585;DHT22;6863;48.402;9.994;2023-11-21T05:44:44;7.40;99.90
13585;DHT22;6863;48.402;9.994;2023-11-21T05:47:10;7.40;99.90
13585;DHT22;6863;48.402;9.994;2023-11-21T05:49:36;7.40;99.90
13585;DHT22;6863;48.402;9.994;2023-11-21T05:52:02;7.50;99.90
13585;DHT22;6863;48.402;9.994;2023-11-21T05:54:28;7.50;99.90
13585;DHT22;6863;48.402;9.994;2023-11-21T05:56:54;7.40;99.90
13585;DHT22;6863;48.402;9.994;2023-11-21T05:59:19;7.40;99.90
13585;DHT22;6863;48.402;9.994;2023-11-21T06:01:46;7.40;99.90
13585;DHT22;6863;48.402;9.994;2023-11-21T06:04:11;7.30;99.90
13585;DHT22;6863;48.402;9.994;2023-11-21T06:06:38;7.30;99.90
13585;DHT22;6863;48.402;9.994;2023-11-21T06:09:04;7.30;99.90
13585;DHT22;6863;48.402;9.994;2023-11-21T06:11:31;7.20;99.90
13585;DHT22;6863;48.402;9.994;2023-11-21T06:13:57;7.20;99.90
13585;DHT22;6863;48.402;9.994;2023-11-21T06:16:23;7.20;99.90
13585;DHT22;6863;48.402;9.994;2023-11-21T06:18:49;7.20;99.90
13585;DHT22;6863;48.402;9.994;2023-11-21T06:21:15;7.20;99.90
13585;DHT22;6863;48.402;9.994;2023-11-21T06:23:42;7.20;99.90
13585;DHT22;6863;48.402;9.994;2023-11-21T06:26:08;7.20;99.90
13585;DHT22;6863;48.402;9.994;2023-11-21T06:28:34;7.10;99.90
13585;DHT22;6863;48.402;9.994;2023-11-21T06:31:01;7.20;99.90
13585;DHT22;6863;48.402;9.994;2023-11-21T06:33:33;7.20;99.90
13585;DHT22;6863;48.402;9.994;2023-11-21T06:36:00;7.20;99.90
13585;DHT22;6863;48.402;9.994;2023-11-21T06:38:28;7.10;99.90
13585;DHT22;6863;48.402;9.994;2023-11-21T06:40:56;7.10;99.90
13585;DHT22;6863;48.402;9.994;2023-11-21T06:43:22;7.00;99.90
13585;DHT22;6863;48.402;9.994;2023-11-21T06:45:48;7.10;99.90
13585;DHT22;6863;48.402;9.994;2023-11-21T06:48:14;7.00;99.90
13585;DHT22;6863;48.402;9.994;2023-11-21T06:50:40;7.00;99.90
13585;DHT22;6863;48.402;9.994;2023-11-21T06:53:07;7.10;99.90
13585;DHT22;6863;48.402;9.994;2023-11-21T06:55:33;7.00;99.90
13585;DHT22;6863;48.402;9.994;2023-11-21T06:58:05;7.00;99.90
13585;DHT22;6863;48.402;9.994;2023-11-21T07:00:31;6.90;99.90
13585;DHT22;6863;48.402;9.994;2023-11-21T07:02:57;6.90;99.90
13585;DHT22;6863;48.402;9.994;2023-11-21T07:05:22;6.90;99.90
13585;DHT22;6863;48.402;9.994;2023-11-21T07:07:50;6.90;99.90
13585;DHT22;6863;48.402;9.994;2023-11-21T07:10:15;7.00;99.90
13585;DHT22;6863;48.402;9.994;2023-11-21T07:12:42;7.10;99.90
13585;DHT22;6863;48.402;9.994;2023-11-21T07:15:08;7.10;99.90
13585;DHT22;6863;48.402;9.994;2023-11-21T07:17:37;7.20;99.90
13585;DHT22;6863;48.402;9.994;2023-11-21T07:20:03;7.40;99.90
13585;DHT22;6863;48.402;9.994;2023-11-21T07:22:29;7.50;99.90
13585;DHT22;6863;48.402;9.994;2023-11-21T07:24:55;7.60;99.90
13585;DHT22;6863;48.402;9.994;2023-11-21T07:27:22;7.70;99.90
13585;DHT22;6863;48.402;9.994;2023-11-21T07:29:47;7.70;99.90
13585;DHT22;6863;48.402;9.994;2023-11-21T07:32:14;7.60;99.90
13585;DHT22;6863;48.402;9.994;2023-11-21T07:34:40;7.60;99.90
13585;DHT22;6863;48.402;9.994;2023-11-21T07:37:07;7.70;99.90
13585;DHT22;6863;48.402;9.994;2023-11-21T07:39:34;7.60;99.90
13585;DHT22;6863;48.402;9.994;2023-11-21T07:42:00;7.70;99.90
13585;DHT22;6863;48.402;9.994;2023-11-21T07:44:25;7.70;99.90
13585;DHT22;6863;48.402;9.994;2023-11-21T07:46:51;7.60;99.90
13585;DHT22;6863;48.402;9.994;2023-11-21T07:49:17;7.60;99.90
13585;DHT22;6863;48.402;9.994;2023-11-21T07:51:45;7.70;99.90
13585;DHT22;6863;48.402;9.994;2023-11-21T07:54:11;7.80;99.90
13585;DHT22;6863;48.402;9.994;2023-11-21T07:56:37;7.90;99.90
13585;DHT22;6863;48.402;9.994;2023-11-21T07:59:02;8.00;99.90
13585;DHT22;6863;48.402;9.994;2023-11-21T08:01:28;8.10;99.90
13585;DHT22;6863;48.402;9.994;2023-11-21T08:03:54;8.30;99.90
13585;DHT22;6863;48.402;9.994;2023-11-21T08:06:23;8.30;99.90
13585;DHT22;6863;48.402;9.994;2023-11-21T08:08:49;8.30;99.90
13585;DHT22;6863;48.402;9.994;2023-11-21T08:11:15;8.20;99.90
13585;DHT22;6863;48.402;9.994;2023-11-21T08:13:40;8.10;99.90
13585;DHT22;6863;48.402;9.994;2023-11-21T08:16:06;8.30;99.90
13585;DHT22;6863;48.402;9.994;2023-11-21T08:18:32;8.40;99.90
13585;DHT22;6863;48.402;9.994;2023-11-21T08:20:59;8.40;99.90
13585;DHT22;6863;48.402;9.994;2023-11-21T08:23:25;8.40;99.90
13585;DHT22;6863;48.402;9.994;2023-11-21T08:25:54;8.60;99.90
13585;DHT22;6863;48.402;9.994;2023-11-21T08:28:21;8.70;99.90
13585;DHT22;6863;48.402;9.994;2023-11-21T08:30:52;8.70;99.90
13585;DHT22;6863;48.402;9.994;2023-11-21T08:33:18;8.70;99.90
13585;DHT22;6863;48.402;9.994;2023-11-21T08:35:44;9.30;99.90
13585;DHT22;6863;48.402;9.994;2023-11-21T08:38:09;10.30;99.90
13585;DHT22;6863;48.402;9.994;2023-11-21T08:40:36;10.70;99.90
13585;DHT22;6863;48.402;9.994;2023-11-21T08:43:01;10.60;99.90
13585;DHT22;6863;48.402;9.994;2023-11-21T08:45:30;10.60;99.90
13585;DHT22;6863;48.402;9.994;2023-11-21T08:47:56;10.50;99.90
13585;DHT22;6863;48.402;9.994;2023-11-21T08:50:21;10.20;99.90
13585;DHT22;6863;48.402;9.994;2023-11-21T08:52:48;10.00;99.90
13585;DHT22;6863;48.402;9.994;2023-11-21T08:55:14;9.90;99.90
13585;DHT22;6863;48.402;9.994;2023-11-21T08:57:41;10.30;99.90
13585;DHT22;6863;48.402;9.994;2023-11-21T09:00:10;10.40;99.90
13585;DHT22;6863;48.402;9.994;2023-11-21T09:02:40;10.10;99.90
13585;DHT22;6863;48.402;9.994;2023-11-21T09:05:10;9.80;99.90
13585;DHT22;6863;48.402;9.994;2023-11-21T09:07:36;9.70;99.90
13585;DHT22;6863;48.402;9.994;2023-11-21T09:10:03;9.80;99.90
13585;DHT22;6863;48.402;9.994;2023-11-21T09:12:28;10.10;99.90
13585;DHT22;6863;48.402;9.994;2023-11-21T09:14:54;10.30;99.90
13585;DHT22;6863;48.402;9.994;2023-11-21T09:17:20;11.00;99.90
13585;DHT22;6863;48.402;9.994;2023-11-21T09:19:45;11.30;99.70
13585;DHT22;6863;48.402;9.994;2023-11-21T09:22:15;11.40;99.40
13585;DHT22;6863;48.402;9.994;2023-11-21T09:24:41;11.50;99.30
13585;DHT22;6863;48.402;9.994;2023-11-21T09:27:08;11.70;99.60
13585;DHT22;6863;48.402;9.994;2023-11-21T09:29:37;12.70;97.70
13585;DHT22;6863;48.402;9.994;2023-11-21T09:32:06;13.90;96.80
13585;DHT22;6863;48.402;9.994;2023-11-21T09:34:38;15.00;94.40
13585;DHT22;6863;48.402;9.994;2023-11-21T09:37:04;16.90;92.20
13585;DHT22;6863;48.402;9.994;2023-11-21T09:39:32;18.40;86.10
13585;DHT22;6863;48.402;9.994;2023-11-21T09:42:21;18.90;82.60
13585;DHT22;6863;48.402;9.994;2023-11-21T09:47:45;20.50;75.40
13585;DHT22;6863;48.402;9.994;2023-11-21T09:50:16;22.10;67.80
13585;DHT22;6863;48.402;9.994;2023-11-21T09:52:57;21.90;64.90
13585;DHT22;6863;48.402;9.994;2023-11-21T09:55:26;21.60;65.30
13585;DHT22;6863;48.402;9.994;2023-11-21T09:57:53;20.80;65.30
13585;DHT22;6863;48.402;9.994;2023-11-21T10:00:19;19.80;67.00
13585;DHT22;6863;48.402;9.994;2023-11-21T10:02:49;18.00;71.40
13585;DHT22;6863;48.402;9.994;2023-11-21T10:05:15;16.40;75.50
13585;DHT22;6863;48.402;9.994;2023-11-21T10:07:46;15.50;79.90
13585;DHT22;6863;48.402;9.994;2023-11-21T10:10:12;15.10;82.30
13585;DHT22;6863;48.402;9.994;2023-11-21T10:12:39;14.80;82.90
13585;DHT22;6863;48.402;9.994;2023-11-21T10:15:08;14.00;86.30
13585;DHT22;6863;48.402;9.994;2023-11-21T10:17:36;15.40;87.40
13585;DHT22;6863;48.402;9.994;2023-11-21T10:20:10;17.50;81.00
13585;DHT22;6863;48.402;9.994;2023-11-21T10:22:41;19.80;74.60
13585;DHT22;6863;48.402;9.994;2023-11-21T10:25:10;22.80;67.10
13585;DHT22;6863;48.402;9.994;2023-11-21T10:27:39;23.90;60.20
13585;DHT22;6863;48.402;9.994;2023-11-21T10:30:06;25.90;55.70
13585;DHT22;6863;48.402;9.994;2023-11-21T10:32:31;26.40;52.30
13585;DHT22;6863;48.402;9.994;2023-11-21T10:35:01;26.30;50.60
13585;DHT22;6863;48.402;9.994;2023-11-21T10:37:32;26.30;49.60
13585;DHT22;6863;48.402;9.994;2023-11-21T10:40:01;27.30;46.90
13585;DHT22;6863;48.402;9.994;2023-11-21T10:42:26;27.40;47.10
13585;DHT22;6863;48.402;9.994;2023-11-21T10:44:55;26.90;46.80
13585;DHT22;6863;48.402;9.994;2023-11-21T10:47:21;28.10;44.60
13585;DHT22;6863;48.402;9.994;2023-11-21T10:49:51;28.60;42.00
13585;DHT22;6863;48.402;9.994;2023-11-21T10:52:19;27.80;43.40
13585;DHT22;6863;48.402;9.994;2023-11-21T10:54:46;27.50;42.90
13585;DHT22;6863;48.402;9.994;2023-11-21T10:57:15;26.30;44.00
13585;DHT22;6863;48.402;9.994;2023-11-21T10:59:46;25.40;45.70
13585;DHT22;6863;48.402;9.994;2023-11-21T11:02:24;26.60;44.70
13585;DHT22;6863;48.402;9.994;2023-11-21T11:04:54;27.00;42.50
13585;DHT22;6863;48.402;9.994;2023-11-21T11:07:22;25.60;42.70
13585;DHT22;6863;48.402;9.994;2023-11-21T11:09:52;25.40;45.20
13585;DHT22;6863;48.402;9.994;2023-11-21T11:12:18;24.80;44.80
13585;DHT22;6863;48.402;9.994;2023-11-21T11:14:44;25.00;45.20
13585;DHT22;6863;48.402;9.994;2023-11-21T11:17:10;23.30;46.00
13585;DHT22;6863;48.402;9.994;2023-11-21T11:19:36;21.40;51.00
13585;DHT22;6863;48.402;9.994;2023-11-21T11:27:32;20.20;54.10
13585;DHT22;6863;48.402;9.994;2023-11-21T11:33:48;18.40;55.70
13585;DHT22;6863;48.402;9.994;2023-11-21T11:38:56;18.50;54.80
13585;DHT22;6863;48.402;9.994;2023-11-21T11:41:34;16.80;58.70
13585;DHT22;6863;48.402;9.994;2023-11-21T11:44:00;15.70;62.80
13585;DHT22;6863;48.402;9.994;2023-11-21T11:46:43;15.50;64.70
13585;DHT22;6863;48.402;9.994;2023-11-21T11:49:23;15.00;66.60
13585;DHT22;6863;48.402;9.994;2023-11-21T11:54:55;14.70;68.70
13585;DHT22;6863;48.402;9.994;2023-11-21T11:57:24;14.80;70.00
13585;DHT22;6863;48.402;9.994;2023-11-21T12:00:18;14.90;69.90
13585;DHT22;6863;48.402;9.994;2023-11-21T12:02:54;15.00;68.10
13585;DHT22;6863;48.402;9.994;2023-11-21T12:05:22;14.90;71.60
13585;DHT22;6863;48.402;9.994;2023-11-21T12:07:49;15.20;72.30
13585;DHT22;6863;48.402;9.994;2023-11-21T12:10:23;15.90;70.30
13585;DHT22;6863;48.402;9.994;2023-11-21T12:12:51;18.50;65.90
13585;DHT22;6863;48.402;9.994;2023-11-21T12:15:20;20.40;57.60
13585;DHT22;6863;48.402;9.994;2023-11-21T12:17:47;20.00;56.40
13585;DHT22;6863;48.402;9.994;2023-11-21T12:20:13;19.50;59.00
13585;DHT22;6863;48.402;9.994;2023-11-21T12:22:46;20.00;60.20
13585;DHT22;6863;48.402;9.994;2023-11-21T12:25:19;21.40;57.60
13585;DHT22;6863;48.402;9.994;2023-11-21T12:27:46;20.10;58.60
13585;DHT22;6863;48.402;9.994;2023-11-21T12:30:13;18.90;62.00
13585;DHT22;6863;48.402;9.994;2023-11-21T12:32:43;17.50;65.00
13585;DHT22;6863;48.402;9.994;2023-11-21T12:35:09;16.40;68.70
13585;DHT22;6863;48.402;9.994;2023-11-21T12:37:37;15.70;71.70
13585;DHT22;6863;48.402;9.994;2023-11-21T12:40:06;15.00;74.10
13585;DHT22;6863;48.402;9.994;2023-11-21T12:42:33;14.60;76.40
13585;DHT22;6863;48.402;9.994;2023-11-21T12:45:19;14.30;78.20
13585;DHT22;6863;48.402;9.994;2023-11-21T12:47:46;14.00;79.00
13585;DHT22;6863;48.402;9.994;2023-11-21T12:50:12;13.70;80.10
13585;DHT22;6863;48.402;9.994;2023-11-21T12:52:51;13.50;82.30
13585;DHT22;6863;48.402;9.994;2023-11-21T12:55:21;13.50;84.80
13585;DHT22;6863;48.402;9.994;2023-11-21T12:57:54;13.30;87.00
13585;DHT22;6863;48.402;9.994;2023-11-21T13:00:29;13.20;89.60
13585;DHT22;6863;48.402;9.994;2023-11-21T13:02:58;13.30;89.70
13585;DHT22;6863;48.402;9.994;2023-11-21T13:05:34;13.40;90.30
13585;DHT22;6863;48.402;9.994;2023-11-21T13:08:02;13.10;90.50
13585;DHT22;6863;48.402;9.994;2023-11-21T13:10:30;13.10;90.40
13585;DHT22;6863;48.402;9.994;2023-11-21T13:13:01;12.70;90.60
13585;DHT22;6863;48.402;9.994;2023-11-21T13:15:30;12.80;91.60
13585;DHT22;6863;48.402;9.994;2023-11-21T13:17:57;13.20;91.30
13585;DHT22;6863;48.402;9.994;2023-11-21T13:20:24;13.40;90.30
13585;DHT22;6863;48.402;9.994;2023-11-21T13:22:50;13.20;90.00
13585;DHT22;6863;48.402;9.994;2023-11-21T13:25:20;13.10;90.50
13585;DHT22;6863;48.402;9.994;2023-11-21T13:27:46;12.90;90.70
13585;DHT22;6863;48.402;9.994;2023-11-21T13:30:13;13.10;90.70
13585;DHT22;6863;48.402;9.994;2023-11-21T13:32:45;13.00;90.40
13585;DHT22;6863;48.402;9.994;2023-11-21T13:35:17;13.00;90.30
13585;DHT22;6863;48.402;9.994;2023-11-21T13:40:33;13.30;88.70
13585;DHT22;6863;48.402;9.994;2023-11-21T13:43:05;13.40;88.40
13585;DHT22;6863;48.402;9.994;2023-11-21T13:45:31;13.40;89.40
13585;DHT22;6863;48.402;9.994;2023-11-21T13:47:57;13.40;88.00
13585;DHT22;6863;48.402;9.994;2023-11-21T13:50:26;13.30;89.30
13585;DHT22;6863;48.402;9.994;2023-11-21T13:52:58;13.20;89.40
13585;DHT22;6863;48.402;9.994;2023-11-21T13:55:29;13.10;90.10
13585;DHT22;6863;48.402;9.994;2023-11-21T13:57:55;13.20;90.30
13585;DHT22;6863;48.402;9.994;2023-11-21T14:00:23;13.10;90.40
13585;DHT22;6863;48.402;9.994;2023-11-21T14:03:09;12.70;90.20
13585;DHT22;6863;48.402;9.994;2023-11-21T14:08:22;12.20;91.40
13585;DHT22;6863;48.402;9.994;2023-11-21T14:10:54;12.00;91.80
13585;DHT22;6863;48.402;9.994;2023-11-21T14:13:28;11.80;92.00
13585;DHT22;6863;48.402;9.994;2023-11-21T14:15:54;11.70;92.30
13585;DHT22;6863;48.402;9.994;2023-11-21T14:18:24;11.60;92.50
13585;DHT22;6863;48.402;9.994;2023-11-21T14:20:59;11.60;92.90
13585;DHT22;6863;48.402;9.994;2023-11-21T14:23:25;11.60;93.20
13585;DHT22;6863;48.402;9.994;2023-11-21T14:25:51;11.50;93.20
13585;DHT22;6863;48.402;9.994;2023-11-21T14:28:17;11.30;93.80
13585;DHT22;6863;48.402;9.994;2023-11-21T14:30:45;11.30;93.80
13585;DHT22;6863;48.402;9.994;2023-11-21T14:33:12;11.40;93.80
13585;DHT22;6863;48.402;9.994;2023-11-21T14:35:38;11.50;94.00
13585;DHT22;6863;48.402;9.994;2023-11-21T14:38:03;11.40;94.20
13585;DHT22;6863;48.402;9.994;2023-11-21T14:40:33;11.40;94.10
13585;DHT22;6863;48.402;9.994;2023-11-21T14:43:01;11.30;94.20
13585;DHT22;6863;48.402;9.994;2023-11-21T14:45:26;11.10;94.30
13585;DHT22;6863;48.402;9.994;2023-11-21T14:47:54;11.00;94.80
13585;DHT22;6863;48.402;9.994;2023-11-21T14:50:37;11.00;95.00
13585;DHT22;6863;48.402;9.994;2023-11-21T14:53:34;11.00;95.10
13585;DHT22;6863;48.402;9.994;2023-11-21T14:56:19;11.00;95.50
13585;DHT22;6863;48.402;9.994;2023-11-21T14:58:54;10.90;95.60
13585;DHT22;6863;48.402;9.994;2023-11-21T15:01:25;10.80;96.10
13585;DHT22;6863;48.402;9.994;2023-11-21T15:04:23;10.70;96.60
13585;DHT22;6863;48.402;9.994;2023-11-21T15:07:08;10.70;96.80
13585;DHT22;6863;48.402;9.994;2023-11-21T15:09:33;10.60;96.90
13585;DHT22;6863;48.402;9.994;2023-11-21T15:12:00;10.50;97.20
13585;DHT22;6863;48.402;9.994;2023-11-21T15:14:39;10.50;97.50
13585;DHT22;6863;48.402;9.994;2023-11-21T15:17:05;10.30;97.90
13585;DHT22;6863;48.402;9.994;2023-11-21T15:19:31;10.30;98.20
13585;DHT22;6863;48.402;9.994;2023-11-21T15:21:57;10.20;98.50
13585;DHT22;6863;48.402;9.994;2023-11-21T15:24:23;10.10;98.70
13585;DHT22;6863;48.402;9.994;2023-11-21T15:26:49;10.10;99.00
13585;DHT22;6863;48.402;9.994;2023-11-21T15:29:16;10.10;99.20
13585;DHT22;6863;48.402;9.994;2023-11-21T15:31:42;10.10;99.20
13585;DHT22;6863;48.402;9.994;2023-11-21T15:34:13;10.10;99.40
13585;DHT22;6863;48.402;9.994;2023-11-21T15:36:39;10.00;99.60
13585;DHT22;6863;48.402;9.994;2023-11-21T15:39:04;9.90;99.90
13585;DHT22;6863;48.402;9.994;2023-11-21T15:41:30;9.90;99.90
13585;DHT22;6863;48.402;9.994;2023-11-21T15:43:55;9.80;99.90
13585;DHT22;6863;48.402;9.994;2023-11-21T15:46:21;9.70;99.90
13585;DHT22;6863;48.402;9.994;2023-11-21T15:48:47;9.60;99.90
13585;DHT22;6863;48.402;9.994;2023-11-21T15:51:19;9.60;99.90
13585;DHT22;6863;48.402;9.994;2023-11-21T15:53:45;9.50;99.90
13585;DHT22;6863;48.402;9.994;2023-11-21T15:56:11;9.50;99.90
13585;DHT22;6863;48.402;9.994;2023-11-21T15:58:41;9.50;99.90
13585;DHT22;6863;48.402;9.994;2023-11-21T16:01:09;9.50;99.90
13585;DHT22;6863;48.402;9.994;2023-11-21T16:03:35;9.30;99.90
13585;DHT22;6863;48.402;9.994;2023-11-21T16:06:01;9.30;99.90
13585;DHT22;6863;48.402;9.994;2023-11-21T16:08:31;9.30;99.90
13585;DHT22;6863;48.402;9.994;2023-11-21T16:10:56;9.20;99.90
13585;DHT22;6863;48.402;9.994;2023-11-21T16:13:22;9.20;99.90
13585;DHT22;6863;48.402;9.994;2023-11-21T16:15:48;9.10;99.90
13585;DHT22;6863;48.402;9.994;2023-11-21T16:18:14;9.10;99.90
13585;DHT22;6863;48.402;9.994;2023-11-21T16:20:41;9.20;99.90